sensor_id;sensor_type;location;lat;lon;timestamp;P1;durP1;ratioP1;P2;durP2;ratioP2
6757;SDS011;3416;53.074;8.822;2022-10-16T00:01:13;8.98;;;3.67;;
6757;SDS011;3416;53.074;8.822;2022-10-16T00:03:42;5.50;;;3.42;;
6757;SDS011;3416;53.074;8.822;2022-10-16T00:06:10;4.38;;;3.00;;
6757;SDS011;3416;53.074;8.822;2022-10-16T00:08:39;4.55;;;2.50;;
6757;SDS011;3416;53.074;8.822;2022-10-16T00:11:08;2.42;;;2.22;;
6757;SDS011;3416;53.074;8.822;2022-10-16T00:13:39;6.18;;;3.03;;
6757;SDS011;3416;53.074;8.822;2022-10-16T00:16:07;3.38;;;2.63;;
6757;SDS011;3416;53.074;8.822;2022-10-16T00:18:36;3.20;;;2.90;;
6757;SDS011;3416;53.074;8.822;2022-10-16T00:21:05;4.93;;;2.80;;
6757;SDS011;3416;53.074;8.822;2022-10-16T00:23:33;5.00;;;3.20;;
6757;SDS011;3416;53.074;8.822;2022-10-16T00:26:01;5.97;;;3.63;;
6757;SDS011;3416;53.074;8.822;2022-10-16T00:28:29;8.20;;;3.38;;
6757;SDS011;3416;53.074;8.822;2022-10-16T00:30:58;3.60;;;2.58;;
6757;SDS011;3416;53.074;8.822;2022-10-16T00:33:25;3.95;;;3.10;;
6757;SDS011;3416;53.074;8.822;2022-10-16T00:35:54;4.95;;;3.10;;
6757;SDS011;3416;53.074;8.822;2022-10-16T00:38:24;3.40;;;2.50;;
6757;SDS011;3416;53.074;8.822;2022-10-16T00:40:51;6.20;;;2.90;;
6757;SDS011;3416;53.074;8.822;2022-10-16T00:43:32;5.68;;;3.05;;
6757;SDS011;3416;53.074;8.822;2022-10-16T00:46:03;5.75;;;2.83;;
6757;SDS011;3416;53.074;8.822;2022-10-16T00:48:35;4.05;;;3.10;;
6757;SDS011;3416;53.074;8.822;2022-10-16T00:51:02;7.05;;;2.80;;
6757;SDS011;3416;53.074;8.822;2022-10-16T00:53:30;5.25;;;3.45;;
6757;SDS011;3416;53.074;8.822;2022-10-16T00:55:57;5.32;;;3.40;;
6757;SDS011;3416;53.074;8.822;2022-10-16T00:58:24;3.47;;;3.13;;
6757;SDS011;3416;53.074;8.822;2022-10-16T01:00:51;3.97;;;2.95;;
6757;SDS011;3416;53.074;8.822;2022-10-16T01:03:24;6.05;;;3.10;;
6757;SDS011;3416;53.074;8.822;2022-10-16T01:05:54;5.25;;;2.80;;
6757;SDS011;3416;53.074;8.822;2022-10-16T01:08:42;3.75;;;2.72;;
6757;SDS011;3416;53.074;8.822;2022-10-16T01:11:17;6.78;;;3.50;;
6757;SDS011;3416;53.074;8.822;2022-10-16T01:13:52;3.65;;;2.45;;
6757;SDS011;3416;53.074;8.822;2022-10-16T01:16:24;3.00;;;2.72;;
6757;SDS011;3416;53.074;8.822;2022-10-16T01:19:00;4.40;;;2.97;;
6757;SDS011;3416;53.074;8.822;2022-10-16T01:21:37;6.00;;;2.90;;
6757;SDS011;3416;53.074;8.822;2022-10-16T01:24:09;4.38;;;2.85;;
6757;SDS011;3416;53.074;8.822;2022-10-16T01:29:33;4.72;;;2.20;;
6757;SDS011;3416;53.074;8.822;2022-10-16T01:32:05;3.55;;;2.50;;
6757;SDS011;3416;53.074;8.822;2022-10-16T01:34:38;8.20;;;3.28;;
6757;SDS011;3416;53.074;8.822;2022-10-16T01:37:14;6.15;;;2.70;;
6757;SDS011;3416;53.074;8.822;2022-10-16T01:39:45;2.92;;;2.33;;
6757;SDS011;3416;53.074;8.822;2022-10-16T01:42:18;7.00;;;3.17;;
6757;SDS011;3416;53.074;8.822;2022-10-16T01:44:48;4.97;;;3.70;;
6757;SDS011;3416;53.074;8.822;2022-10-16T01:47:17;4.45;;;3.20;;
6757;SDS011;3416;53.074;8.822;2022-10-16T01:49:46;3.47;;;2.50;;
6757;SDS011;3416;53.074;8.822;2022-10-16T01:52:16;6.13;;;2.80;;
6757;SDS011;3416;53.074;8.822;2022-10-16T01:54:47;7.57;;;3.42;;
6757;SDS011;3416;53.074;8.822;2022-10-16T01:57:21;8.00;;;2.90;;
6757;SDS011;3416;53.074;8.822;2022-10-16T01:59:50;3.90;;;2.35;;
6757;SDS011;3416;53.074;8.822;2022-10-16T02:02:22;9.70;;;4.18;;
6757;SDS011;3416;53.074;8.822;2022-10-16T02:04:53;4.35;;;3.20;;
6757;SDS011;3416;53.074;8.822;2022-10-16T02:07:24;4.80;;;2.75;;
6757;SDS011;3416;53.074;8.822;2022-10-16T02:09:51;5.68;;;3.28;;
6757;SDS011;3416;53.074;8.822;2022-10-16T02:12:19;4.20;;;3.80;;
6757;SDS011;3416;53.074;8.822;2022-10-16T02:14:51;4.55;;;2.88;;
6757;SDS011;3416;53.074;8.822;2022-10-16T02:17:19;4.55;;;3.10;;
6757;SDS011;3416;53.074;8.822;2022-10-16T02:19:47;5.28;;;2.53;;
6757;SDS011;3416;53.074;8.822;2022-10-16T02:22:17;10.82;;;2.80;;
6757;SDS011;3416;53.074;8.822;2022-10-16T02:24:49;3.83;;;3.20;;
6757;SDS011;3416;53.074;8.822;2022-10-16T02:27:22;3.65;;;2.92;;
6757;SDS011;3416;53.074;8.822;2022-10-16T02:29:54;3.78;;;2.80;;
6757;SDS011;3416;53.074;8.822;2022-10-16T02:32:27;3.75;;;2.50;;
6757;SDS011;3416;53.074;8.822;2022-10-16T02:34:57;5.32;;;3.03;;
6757;SDS011;3416;53.074;8.822;2022-10-16T02:37:26;5.50;;;3.25;;
6757;SDS011;3416;53.074;8.822;2022-10-16T02:39:53;4.25;;;2.92;;
6757;SDS011;3416;53.074;8.822;2022-10-16T02:42:27;9.63;;;3.00;;
6757;SDS011;3416;53.074;8.822;2022-10-16T02:44:58;3.92;;;3.20;;
6757;SDS011;3416;53.074;8.822;2022-10-16T02:47:25;6.20;;;3.03;;
6757;SDS011;3416;53.074;8.822;2022-10-16T02:49:52;4.43;;;2.97;;
6757;SDS011;3416;53.074;8.822;2022-10-16T02:52:19;15.30;;;3.65;;
6757;SDS011;3416;53.074;8.822;2022-10-16T02:54:46;6.88;;;3.25;;
6757;SDS011;3416;53.074;8.822;2022-10-16T02:57:13;4.70;;;3.70;;
6757;SDS011;3416;53.074;8.822;2022-10-16T02:59:41;4.97;;;3.55;;
6757;SDS011;3416;53.074;8.822;2022-10-16T03:02:08;5.35;;;3.70;;
6757;SDS011;3416;53.074;8.822;2022-10-16T03:04:35;5.25;;;3.35;;
6757;SDS011;3416;53.074;8.822;2022-10-16T03:07:02;6.05;;;3.65;;
6757;SDS011;3416;53.074;8.822;2022-10-16T03:09:29;3.85;;;3.30;;
6757;SDS011;3416;53.074;8.822;2022-10-16T03:11:56;4.88;;;3.13;;
6757;SDS011;3416;53.074;8.822;2022-10-16T03:14:23;5.47;;;3.00;;
6757;SDS011;3416;53.074;8.822;2022-10-16T03:16:51;4.97;;;3.47;;
6757;SDS011;3416;53.074;8.822;2022-10-16T03:19:18;4.90;;;3.33;;
6757;SDS011;3416;53.074;8.822;2022-10-16T03:21:45;5.78;;;3.97;;
6757;SDS011;3416;53.074;8.822;2022-10-16T03:24:12;4.47;;;4.05;;
6757;SDS011;3416;53.074;8.822;2022-10-16T03:26:39;7.40;;;3.70;;
6757;SDS011;3416;53.074;8.822;2022-10-16T03:29:06;5.88;;;3.20;;
6757;SDS011;3416;53.074;8.822;2022-10-16T03:31:33;4.88;;;3.03;;
6757;SDS011;3416;53.074;8.822;2022-10-16T03:34:01;7.97;;;3.20;;
6757;SDS011;3416;53.074;8.822;2022-10-16T03:36:28;6.20;;;3.65;;
6757;SDS011;3416;53.074;8.822;2022-10-16T03:38:55;7.38;;;4.50;;
6757;SDS011;3416;53.074;8.822;2022-10-16T03:41:22;4.15;;;3.70;;
6757;SDS011;3416;53.074;8.822;2022-10-16T03:43:49;10.35;;;5.22;;
6757;SDS011;3416;53.074;8.822;2022-10-16T03:46:16;8.43;;;4.43;;
6757;SDS011;3416;53.074;8.822;2022-10-16T03:48:42;4.82;;;4.15;;
6757;SDS011;3416;53.074;8.822;2022-10-16T03:51:11;9.35;;;4.70;;
6757;SDS011;3416;53.074;8.822;2022-10-16T03:53:37;5.70;;;4.68;;
6757;SDS011;3416;53.074;8.822;2022-10-16T03:56:04;10.43;;;5.18;;
6757;SDS011;3416;53.074;8.822;2022-10-16T03:58:32;8.27;;;6.10;;
6757;SDS011;3416;53.074;8.822;2022-10-16T04:00:59;9.38;;;5.28;;
6757;SDS011;3416;53.074;8.822;2022-10-16T04:03:26;5.70;;;5.05;;
6757;SDS011;3416;53.074;8.822;2022-10-16T04:05:52;9.25;;;6.45;;
6757;SDS011;3416;53.074;8.822;2022-10-16T04:08:21;8.20;;;7.20;;
6757;SDS011;3416;53.074;8.822;2022-10-16T04:10:48;9.57;;;6.70;;
6757;SDS011;3416;53.074;8.822;2022-10-16T04:13:15;9.13;;;6.72;;
6757;SDS011;3416;53.074;8.822;2022-10-16T04:15:41;9.70;;;6.72;;
6757;SDS011;3416;53.074;8.822;2022-10-16T04:18:08;11.38;;;7.43;;
6757;SDS011;3416;53.074;8.822;2022-10-16T04:20:35;9.18;;;7.05;;
6757;SDS011;3416;53.074;8.822;2022-10-16T04:23:02;12.95;;;8.00;;
6757;SDS011;3416;53.074;8.822;2022-10-16T04:25:31;10.00;;;6.60;;
6757;SDS011;3416;53.074;8.822;2022-10-16T04:27:58;7.50;;;6.65;;
6757;SDS011;3416;53.074;8.822;2022-10-16T04:30:25;11.70;;;8.13;;
6757;SDS011;3416;53.074;8.822;2022-10-16T04:32:52;10.50;;;8.50;;
6757;SDS011;3416;53.074;8.822;2022-10-16T04:35:20;11.05;;;7.90;;
6757;SDS011;3416;53.074;8.822;2022-10-16T04:37:47;13.68;;;9.05;;
6757;SDS011;3416;53.074;8.822;2022-10-16T04:40:15;13.23;;;9.70;;
6757;SDS011;3416;53.074;8.822;2022-10-16T04:42:43;12.93;;;8.27;;
6757;SDS011;3416;53.074;8.822;2022-10-16T04:45:10;12.35;;;9.48;;
6757;SDS011;3416;53.074;8.822;2022-10-16T04:47:37;14.20;;;7.97;;
6757;SDS011;3416;53.074;8.822;2022-10-16T04:50:05;12.32;;;7.78;;
6757;SDS011;3416;53.074;8.822;2022-10-16T04:52:32;13.48;;;10.07;;
6757;SDS011;3416;53.074;8.822;2022-10-16T04:54:59;12.90;;;10.02;;
6757;SDS011;3416;53.074;8.822;2022-10-16T04:57:27;9.70;;;8.75;;
6757;SDS011;3416;53.074;8.822;2022-10-16T04:59:56;13.77;;;9.32;;
6757;SDS011;3416;53.074;8.822;2022-10-16T05:02:23;12.82;;;10.00;;
6757;SDS011;3416;53.074;8.822;2022-10-16T05:04:50;20.58;;;10.65;;
6757;SDS011;3416;53.074;8.822;2022-10-16T05:07:17;15.82;;;11.43;;
6757;SDS011;3416;53.074;8.822;2022-10-16T05:09:45;13.48;;;10.40;;
6757;SDS011;3416;53.074;8.822;2022-10-16T05:12:12;19.35;;;11.88;;
6757;SDS011;3416;53.074;8.822;2022-10-16T05:14:39;12.80;;;11.27;;
6757;SDS011;3416;53.074;8.822;2022-10-16T05:17:07;14.68;;;11.80;;
6757;SDS011;3416;53.074;8.822;2022-10-16T05:19:34;21.75;;;11.13;;
6757;SDS011;3416;53.074;8.822;2022-10-16T05:22:01;14.88;;;11.57;;
6757;SDS011;3416;53.074;8.822;2022-10-16T05:24:28;21.45;;;11.68;;
6757;SDS011;3416;53.074;8.822;2022-10-16T05:26:55;12.68;;;10.15;;
6757;SDS011;3416;53.074;8.822;2022-10-16T05:29:22;15.52;;;12.25;;
6757;SDS011;3416;53.074;8.822;2022-10-16T05:31:50;16.25;;;12.02;;
6757;SDS011;3416;53.074;8.822;2022-10-16T05:34:19;13.73;;;12.20;;
6757;SDS011;3416;53.074;8.822;2022-10-16T05:36:47;14.05;;;11.35;;
6757;SDS011;3416;53.074;8.822;2022-10-16T05:39:14;17.67;;;13.75;;
6757;SDS011;3416;53.074;8.822;2022-10-16T05:41:41;23.30;;;14.02;;
6757;SDS011;3416;53.074;8.822;2022-10-16T05:44:09;15.98;;;11.88;;
6757;SDS011;3416;53.074;8.822;2022-10-16T05:46:35;14.27;;;11.82;;
6757;SDS011;3416;53.074;8.822;2022-10-16T05:49:03;13.55;;;10.23;;
6757;SDS011;3416;53.074;8.822;2022-10-16T05:51:31;15.52;;;11.38;;
6757;SDS011;3416;53.074;8.822;2022-10-16T05:53:58;18.55;;;12.93;;
6757;SDS011;3416;53.074;8.822;2022-10-16T05:56:25;14.77;;;12.40;;
6757;SDS011;3416;53.074;8.822;2022-10-16T05:58:52;20.85;;;13.35;;
6757;SDS011;3416;53.074;8.822;2022-10-16T06:01:19;16.40;;;12.80;;
6757;SDS011;3416;53.074;8.822;2022-10-16T06:03:49;18.73;;;12.45;;
6757;SDS011;3416;53.074;8.822;2022-10-16T06:06:16;12.57;;;10.95;;
6757;SDS011;3416;53.074;8.822;2022-10-16T06:08:46;17.70;;;12.65;;
6757;SDS011;3416;53.074;8.822;2022-10-16T06:11:15;16.80;;;12.23;;
6757;SDS011;3416;53.074;8.822;2022-10-16T06:13:43;24.17;;;13.43;;
6757;SDS011;3416;53.074;8.822;2022-10-16T06:16:11;17.70;;;11.60;;
6757;SDS011;3416;53.074;8.822;2022-10-16T06:18:38;15.60;;;10.98;;
6757;SDS011;3416;53.074;8.822;2022-10-16T06:21:08;14.40;;;12.02;;
6757;SDS011;3416;53.074;8.822;2022-10-16T06:23:36;19.98;;;11.35;;
6757;SDS011;3416;53.074;8.822;2022-10-16T06:26:05;13.95;;;10.75;;
6757;SDS011;3416;53.074;8.822;2022-10-16T06:28:33;18.95;;;12.02;;
6757;SDS011;3416;53.074;8.822;2022-10-16T06:31:00;16.95;;;11.30;;
6757;SDS011;3416;53.074;8.822;2022-10-16T06:33:27;15.98;;;11.00;;
6757;SDS011;3416;53.074;8.822;2022-10-16T06:35:59;11.77;;;10.65;;
6757;SDS011;3416;53.074;8.822;2022-10-16T06:38:27;12.35;;;10.00;;
6757;SDS011;3416;53.074;8.822;2022-10-16T06:40:54;12.95;;;11.35;;
6757;SDS011;3416;53.074;8.822;2022-10-16T06:43:22;13.13;;;10.65;;
6757;SDS011;3416;53.074;8.822;2022-10-16T06:45:50;13.98;;;11.25;;
6757;SDS011;3416;53.074;8.822;2022-10-16T06:48:19;13.27;;;9.52;;
6757;SDS011;3416;53.074;8.822;2022-10-16T06:50:54;10.32;;;9.18;;
6757;SDS011;3416;53.074;8.822;2022-10-16T06:53:26;12.55;;;9.80;;
6757;SDS011;3416;53.074;8.822;2022-10-16T06:55:54;11.57;;;9.35;;
6757;SDS011;3416;53.074;8.822;2022-10-16T06:58:22;9.55;;;8.55;;
6757;SDS011;3416;53.074;8.822;2022-10-16T07:00:54;10.30;;;7.10;;
6757;SDS011;3416;53.074;8.822;2022-10-16T07:03:22;11.67;;;8.60;;
6757;SDS011;3416;53.074;8.822;2022-10-16T07:05:49;8.35;;;7.47;;
6757;SDS011;3416;53.074;8.822;2022-10-16T07:08:16;8.33;;;7.53;;
6757;SDS011;3416;53.074;8.822;2022-10-16T07:10:43;7.43;;;6.63;;
6757;SDS011;3416;53.074;8.822;2022-10-16T07:13:10;9.87;;;7.03;;
6757;SDS011;3416;53.074;8.822;2022-10-16T07:15:39;8.63;;;6.90;;
6757;SDS011;3416;53.074;8.822;2022-10-16T07:18:07;12.27;;;6.20;;
6757;SDS011;3416;53.074;8.822;2022-10-16T07:20:34;11.13;;;9.40;;
6757;SDS011;3416;53.074;8.822;2022-10-16T07:23:02;10.37;;;6.60;;
6757;SDS011;3416;53.074;8.822;2022-10-16T07:25:29;7.33;;;6.53;;
6757;SDS011;3416;53.074;8.822;2022-10-16T07:27:56;6.23;;;5.63;;
6757;SDS011;3416;53.074;8.822;2022-10-16T07:30:23;9.80;;;7.03;;
6757;SDS011;3416;53.074;8.822;2022-10-16T07:32:51;9.27;;;5.83;;
6757;SDS011;3416;53.074;8.822;2022-10-16T07:35:18;7.23;;;5.70;;
6757;SDS011;3416;53.074;8.822;2022-10-16T07:37:45;8.53;;;6.20;;
6757;SDS011;3416;53.074;8.822;2022-10-16T07:40:12;6.97;;;6.27;;
6757;SDS011;3416;53.074;8.822;2022-10-16T07:42:39;9.80;;;5.87;;
6757;SDS011;3416;53.074;8.822;2022-10-16T07:45:06;8.50;;;6.23;;
6757;SDS011;3416;53.074;8.822;2022-10-16T07:47:33;9.73;;;6.30;;
6757;SDS011;3416;53.074;8.822;2022-10-16T07:50:01;7.33;;;5.20;;
6757;SDS011;3416;53.074;8.822;2022-10-16T07:52:29;5.70;;;5.13;;
6757;SDS011;3416;53.074;8.822;2022-10-16T07:54:55;8.73;;;4.80;;
6757;SDS011;3416;53.074;8.822;2022-10-16T07:57:22;6.60;;;5.90;;
6757;SDS011;3416;53.074;8.822;2022-10-16T07:59:50;5.90;;;5.30;;
6757;SDS011;3416;53.074;8.822;2022-10-16T08:02:24;6.20;;;5.60;;
6757;SDS011;3416;53.074;8.822;2022-10-16T08:04:51;6.63;;;5.87;;
6757;SDS011;3416;53.074;8.822;2022-10-16T08:07:17;5.27;;;4.40;;
6757;SDS011;3416;53.074;8.822;2022-10-16T08:09:44;6.03;;;4.60;;
6757;SDS011;3416;53.074;8.822;2022-10-16T08:12:15;5.60;;;3.70;;
6757;SDS011;3416;53.074;8.822;2022-10-16T08:14:42;8.80;;;4.47;;
6757;SDS011;3416;53.074;8.822;2022-10-16T08:17:09;4.53;;;3.47;;
6757;SDS011;3416;53.074;8.822;2022-10-16T08:19:37;6.70;;;3.40;;
6757;SDS011;3416;53.074;8.822;2022-10-16T08:22:04;4.13;;;2.87;;
6757;SDS011;3416;53.074;8.822;2022-10-16T08:24:30;6.60;;;3.67;;
6757;SDS011;3416;53.074;8.822;2022-10-16T08:26:59;4.23;;;2.83;;
6757;SDS011;3416;53.074;8.822;2022-10-16T08:29:26;4.20;;;2.67;;
6757;SDS011;3416;53.074;8.822;2022-10-16T08:31:53;3.40;;;3.00;;
6757;SDS011;3416;53.074;8.822;2022-10-16T08:34:21;4.47;;;2.73;;
6757;SDS011;3416;53.074;8.822;2022-10-16T08:36:49;3.70;;;2.70;;
6757;SDS011;3416;53.074;8.822;2022-10-16T08:39:19;6.50;;;2.83;;
6757;SDS011;3416;53.074;8.822;2022-10-16T08:41:53;3.43;;;2.40;;
6757;SDS011;3416;53.074;8.822;2022-10-16T08:45:00;4.50;;;2.70;;
6757;SDS011;3416;53.074;8.822;2022-10-16T08:47:43;4.90;;;2.60;;
6757;SDS011;3416;53.074;8.822;2022-10-16T08:50:17;2.10;;;1.90;;
6757;SDS011;3416;53.074;8.822;2022-10-16T08:52:50;3.80;;;2.70;;
6757;SDS011;3416;53.074;8.822;2022-10-16T08:55:22;4.70;;;2.83;;
6757;SDS011;3416;53.074;8.822;2022-10-16T08:58:00;4.90;;;2.57;;
6757;SDS011;3416;53.074;8.822;2022-10-16T09:00:27;7.77;;;3.10;;
6757;SDS011;3416;53.074;8.822;2022-10-16T09:02:58;3.40;;;2.50;;
6757;SDS011;3416;53.074;8.822;2022-10-16T09:05:44;2.90;;;2.07;;
6757;SDS011;3416;53.074;8.822;2022-10-16T09:08:24;7.73;;;2.30;;
6757;SDS011;3416;53.074;8.822;2022-10-16T09:10:57;4.27;;;2.00;;
6757;SDS011;3416;53.074;8.822;2022-10-16T09:13:29;3.77;;;2.63;;
6757;SDS011;3416;53.074;8.822;2022-10-16T09:16:04;4.27;;;2.40;;
6757;SDS011;3416;53.074;8.822;2022-10-16T09:18:43;3.40;;;1.93;;
6757;SDS011;3416;53.074;8.822;2022-10-16T09:21:15;3.30;;;2.17;;
6757;SDS011;3416;53.074;8.822;2022-10-16T09:23:47;3.30;;;2.10;;
6757;SDS011;3416;53.074;8.822;2022-10-16T09:26:15;3.33;;;1.70;;
6757;SDS011;3416;53.074;8.822;2022-10-16T09:28:44;4.23;;;1.60;;
6757;SDS011;3416;53.074;8.822;2022-10-16T09:31:21;4.00;;;2.10;;
6757;SDS011;3416;53.074;8.822;2022-10-16T09:33:50;6.83;;;1.57;;
6757;SDS011;3416;53.074;8.822;2022-10-16T09:36:20;3.10;;;2.10;;
6757;SDS011;3416;53.074;8.822;2022-10-16T09:38:50;3.07;;;1.70;;
6757;SDS011;3416;53.074;8.822;2022-10-16T09:41:27;4.57;;;1.60;;
6757;SDS011;3416;53.074;8.822;2022-10-16T09:43:54;7.10;;;2.07;;
6757;SDS011;3416;53.074;8.822;2022-10-16T09:46:27;6.50;;;1.70;;
6757;SDS011;3416;53.074;8.822;2022-10-16T09:48:56;3.53;;;1.70;;
6757;SDS011;3416;53.074;8.822;2022-10-16T09:51:25;3.60;;;1.60;;
6757;SDS011;3416;53.074;8.822;2022-10-16T09:53:56;4.90;;;1.80;;
6757;SDS011;3416;53.074;8.822;2022-10-16T09:56:25;5.83;;;1.40;;
6757;SDS011;3416;53.074;8.822;2022-10-16T09:58:54;3.27;;;2.37;;
6757;SDS011;3416;53.074;8.822;2022-10-16T10:01:24;2.10;;;1.57;;
6757;SDS011;3416;53.074;8.822;2022-10-16T10:03:55;4.63;;;1.40;;
6757;SDS011;3416;53.074;8.822;2022-10-16T10:06:29;3.90;;;1.07;;
6757;SDS011;3416;53.074;8.822;2022-10-16T10:09:02;8.70;;;1.90;;
6757;SDS011;3416;53.074;8.822;2022-10-16T10:11:43;4.83;;;1.50;;
6757;SDS011;3416;53.074;8.822;2022-10-16T10:14:16;5.43;;;2.03;;
6757;SDS011;3416;53.074;8.822;2022-10-16T10:16:46;2.23;;;1.40;;
6757;SDS011;3416;53.074;8.822;2022-10-16T10:19:14;2.17;;;1.23;;
6757;SDS011;3416;53.074;8.822;2022-10-16T10:21:42;2.87;;;1.23;;
6757;SDS011;3416;53.074;8.822;2022-10-16T10:24:14;7.63;;;1.77;;
6757;SDS011;3416;53.074;8.822;2022-10-16T10:26:44;5.20;;;2.17;;
6757;SDS011;3416;53.074;8.822;2022-10-16T10:29:21;3.10;;;1.10;;
6757;SDS011;3416;53.074;8.822;2022-10-16T10:32:03;5.10;;;2.00;;
6757;SDS011;3416;53.074;8.822;2022-10-16T10:34:41;6.67;;;1.83;;
6757;SDS011;3416;53.074;8.822;2022-10-16T10:37:24;4.63;;;1.80;;
6757;SDS011;3416;53.074;8.822;2022-10-16T10:40:06;3.67;;;1.23;;
6757;SDS011;3416;53.074;8.822;2022-10-16T10:42:44;4.67;;;1.30;;
6757;SDS011;3416;53.074;8.822;2022-10-16T10:45:17;3.00;;;1.20;;
6757;SDS011;3416;53.074;8.822;2022-10-16T10:47:53;1.87;;;1.60;;
6757;SDS011;3416;53.074;8.822;2022-10-16T10:50:30;3.63;;;1.80;;
6757;SDS011;3416;53.074;8.822;2022-10-16T10:53:07;8.40;;;1.70;;
6757;SDS011;3416;53.074;8.822;2022-10-16T10:55:45;4.47;;;1.77;;
6757;SDS011;3416;53.074;8.822;2022-10-16T10:58:33;2.47;;;1.47;;
6757;SDS011;3416;53.074;8.822;2022-10-16T11:01:10;3.43;;;1.27;;
6757;SDS011;3416;53.074;8.822;2022-10-16T11:03:46;6.23;;;1.77;;
6757;SDS011;3416;53.074;8.822;2022-10-16T11:06:25;3.47;;;1.43;;
6757;SDS011;3416;53.074;8.822;2022-10-16T11:08:55;3.87;;;1.93;;
6757;SDS011;3416;53.074;8.822;2022-10-16T11:11:29;4.43;;;1.43;;
6757;SDS011;3416;53.074;8.822;2022-10-16T11:14:02;2.70;;;1.30;;
6757;SDS011;3416;53.074;8.822;2022-10-16T11:16:34;2.53;;;1.20;;
6757;SDS011;3416;53.074;8.822;2022-10-16T11:19:05;5.10;;;1.47;;
6757;SDS011;3416;53.074;8.822;2022-10-16T11:21:41;3.83;;;1.70;;
6757;SDS011;3416;53.074;8.822;2022-10-16T11:24:16;5.23;;;1.20;;
6757;SDS011;3416;53.074;8.822;2022-10-16T11:26:48;4.70;;;1.20;;
6757;SDS011;3416;53.074;8.822;2022-10-16T11:29:21;4.77;;;2.20;;
6757;SDS011;3416;53.074;8.822;2022-10-16T11:31:55;4.43;;;1.50;;
6757;SDS011;3416;53.074;8.822;2022-10-16T11:34:25;5.70;;;1.70;;
6757;SDS011;3416;53.074;8.822;2022-10-16T11:36:58;3.30;;;1.30;;
6757;SDS011;3416;53.074;8.822;2022-10-16T11:39:35;6.40;;;1.20;;
6757;SDS011;3416;53.074;8.822;2022-10-16T11:42:09;3.20;;;1.53;;
6757;SDS011;3416;53.074;8.822;2022-10-16T11:44:43;3.50;;;1.53;;
6757;SDS011;3416;53.074;8.822;2022-10-16T11:47:23;2.13;;;1.17;;
6757;SDS011;3416;53.074;8.822;2022-10-16T11:49:56;6.97;;;1.73;;
6757;SDS011;3416;53.074;8.822;2022-10-16T11:52:27;3.57;;;1.67;;
6757;SDS011;3416;53.074;8.822;2022-10-16T11:54:59;3.80;;;1.23;;
6757;SDS011;3416;53.074;8.822;2022-10-16T11:57:33;2.93;;;1.07;;
6757;SDS011;3416;53.074;8.822;2022-10-16T12:00:06;3.63;;;1.40;;
6757;SDS011;3416;53.074;8.822;2022-10-16T12:02:44;5.67;;;1.93;;
6757;SDS011;3416;53.074;8.822;2022-10-16T12:05:22;5.53;;;1.20;;
6757;SDS011;3416;53.074;8.822;2022-10-16T12:07:57;3.50;;;1.50;;
6757;SDS011;3416;53.074;8.822;2022-10-16T12:10:32;3.27;;;1.30;;
6757;SDS011;3416;53.074;8.822;2022-10-16T12:13:03;3.50;;;1.67;;
6757;SDS011;3416;53.074;8.822;2022-10-16T12:15:32;3.70;;;1.37;;
6757;SDS011;3416;53.074;8.822;2022-10-16T12:18:00;2.90;;;1.27;;
6757;SDS011;3416;53.074;8.822;2022-10-16T12:20:28;2.73;;;1.30;;
6757;SDS011;3416;53.074;8.822;2022-10-16T12:22:58;6.93;;;1.40;;
6757;SDS011;3416;53.074;8.822;2022-10-16T12:25:28;2.53;;;0.97;;
6757;SDS011;3416;53.074;8.822;2022-10-16T12:27:58;2.20;;;1.13;;
6757;SDS011;3416;53.074;8.822;2022-10-16T12:30:31;4.40;;;1.77;;
6757;SDS011;3416;53.074;8.822;2022-10-16T12:33:00;7.07;;;1.50;;
6757;SDS011;3416;53.074;8.822;2022-10-16T12:35:30;5.20;;;1.40;;
6757;SDS011;3416;53.074;8.822;2022-10-16T12:38:06;5.53;;;1.97;;
6757;SDS011;3416;53.074;8.822;2022-10-16T12:40:38;3.23;;;1.20;;
6757;SDS011;3416;53.074;8.822;2022-10-16T12:43:22;8.27;;;1.43;;
6757;SDS011;3416;53.074;8.822;2022-10-16T12:45:59;5.33;;;1.43;;
6757;SDS011;3416;53.074;8.822;2022-10-16T12:48:27;5.00;;;1.70;;
6757;SDS011;3416;53.074;8.822;2022-10-16T12:50:55;6.63;;;1.40;;
6757;SDS011;3416;53.074;8.822;2022-10-16T12:53:23;6.70;;;1.10;;
6757;SDS011;3416;53.074;8.822;2022-10-16T12:55:57;5.70;;;1.37;;
6757;SDS011;3416;53.074;8.822;2022-10-16T12:58:37;3.87;;;1.33;;
6757;SDS011;3416;53.074;8.822;2022-10-16T13:01:26;5.57;;;1.50;;
6757;SDS011;3416;53.074;8.822;2022-10-16T13:06:59;5.03;;;1.20;;
6757;SDS011;3416;53.074;8.822;2022-10-16T13:09:40;2.40;;;1.20;;
6757;SDS011;3416;53.074;8.822;2022-10-16T13:12:28;2.90;;;1.27;;
6757;SDS011;3416;53.074;8.822;2022-10-16T13:15:11;7.00;;;2.63;;
6757;SDS011;3416;53.074;8.822;2022-10-16T13:17:54;6.43;;;1.57;;
6757;SDS011;3416;53.074;8.822;2022-10-16T13:20:30;7.00;;;2.20;;
6757;SDS011;3416;53.074;8.822;2022-10-16T13:23:08;2.90;;;1.40;;
6757;SDS011;3416;53.074;8.822;2022-10-16T13:25:46;3.13;;;1.37;;
6757;SDS011;3416;53.074;8.822;2022-10-16T13:28:27;7.43;;;1.57;;
6757;SDS011;3416;53.074;8.822;2022-10-16T13:30:58;11.07;;;1.80;;
6757;SDS011;3416;53.074;8.822;2022-10-16T13:33:29;5.33;;;1.93;;
6757;SDS011;3416;53.074;8.822;2022-10-16T13:35:58;4.77;;;1.80;;
6757;SDS011;3416;53.074;8.822;2022-10-16T13:38:27;7.00;;;1.67;;
6757;SDS011;3416;53.074;8.822;2022-10-16T13:40:57;4.07;;;1.17;;
6757;SDS011;3416;53.074;8.822;2022-10-16T13:43:27;8.10;;;1.50;;
6757;SDS011;3416;53.074;8.822;2022-10-16T13:46:02;5.80;;;1.60;;
6757;SDS011;3416;53.074;8.822;2022-10-16T13:48:38;7.63;;;1.40;;
6757;SDS011;3416;53.074;8.822;2022-10-16T13:51:06;2.70;;;1.63;;
6757;SDS011;3416;53.074;8.822;2022-10-16T13:53:39;7.07;;;1.83;;
6757;SDS011;3416;53.074;8.822;2022-10-16T13:56:10;7.80;;;1.60;;
6757;SDS011;3416;53.074;8.822;2022-10-16T13:58:38;3.87;;;1.50;;
6757;SDS011;3416;53.074;8.822;2022-10-16T14:01:14;3.50;;;1.50;;
6757;SDS011;3416;53.074;8.822;2022-10-16T14:03:43;6.90;;;1.17;;
6757;SDS011;3416;53.074;8.822;2022-10-16T14:06:11;6.87;;;2.73;;
6757;SDS011;3416;53.074;8.822;2022-10-16T14:08:43;4.93;;;1.40;;
6757;SDS011;3416;53.074;8.822;2022-10-16T14:11:13;4.70;;;1.93;;
6757;SDS011;3416;53.074;8.822;2022-10-16T14:13:47;6.63;;;2.03;;
6757;SDS011;3416;53.074;8.822;2022-10-16T14:16:17;8.93;;;1.80;;
6757;SDS011;3416;53.074;8.822;2022-10-16T14:18:46;5.63;;;1.57;;
6757;SDS011;3416;53.074;8.822;2022-10-16T14:21:21;4.60;;;1.97;;
6757;SDS011;3416;53.074;8.822;2022-10-16T14:23:49;4.27;;;1.97;;
6757;SDS011;3416;53.074;8.822;2022-10-16T14:26:18;3.33;;;1.77;;
6757;SDS011;3416;53.074;8.822;2022-10-16T14:28:48;3.77;;;1.47;;
6757;SDS011;3416;53.074;8.822;2022-10-16T14:31:29;3.67;;;1.40;;
6757;SDS011;3416;53.074;8.822;2022-10-16T14:33:57;8.53;;;1.80;;
6757;SDS011;3416;53.074;8.822;2022-10-16T14:36:25;5.13;;;1.40;;
6757;SDS011;3416;53.074;8.822;2022-10-16T14:38:56;4.23;;;1.83;;
6757;SDS011;3416;53.074;8.822;2022-10-16T14:41:27;3.43;;;1.50;;
6757;SDS011;3416;53.074;8.822;2022-10-16T14:43:55;11.53;;;2.20;;
6757;SDS011;3416;53.074;8.822;2022-10-16T14:46:29;7.67;;;1.50;;
6757;SDS011;3416;53.074;8.822;2022-10-16T14:49:00;7.00;;;1.70;;
6757;SDS011;3416;53.074;8.822;2022-10-16T14:51:30;4.70;;;1.60;;
6757;SDS011;3416;53.074;8.822;2022-10-16T14:53:57;5.90;;;2.50;;
6757;SDS011;3416;53.074;8.822;2022-10-16T14:56:25;10.30;;;1.50;;
6757;SDS011;3416;53.074;8.822;2022-10-16T14:58:57;6.60;;;1.53;;
6757;SDS011;3416;53.074;8.822;2022-10-16T15:01:23;4.27;;;1.60;;
6757;SDS011;3416;53.074;8.822;2022-10-16T15:03:52;4.70;;;1.50;;
6757;SDS011;3416;53.074;8.822;2022-10-16T15:06:20;5.70;;;1.80;;
6757;SDS011;3416;53.074;8.822;2022-10-16T15:08:47;8.83;;;2.17;;
6757;SDS011;3416;53.074;8.822;2022-10-16T15:11:14;6.87;;;1.57;;
6757;SDS011;3416;53.074;8.822;2022-10-16T15:13:43;7.73;;;1.67;;
6757;SDS011;3416;53.074;8.822;2022-10-16T15:16:10;3.83;;;1.30;;
6757;SDS011;3416;53.074;8.822;2022-10-16T15:18:38;7.80;;;1.70;;
6757;SDS011;3416;53.074;8.822;2022-10-16T15:21:07;7.13;;;3.17;;
6757;SDS011;3416;53.074;8.822;2022-10-16T15:23:34;5.83;;;2.67;;
6757;SDS011;3416;53.074;8.822;2022-10-16T15:26:01;4.43;;;2.60;;
6757;SDS011;3416;53.074;8.822;2022-10-16T15:28:29;3.77;;;1.40;;
6757;SDS011;3416;53.074;8.822;2022-10-16T15:30:56;5.10;;;2.57;;
6757;SDS011;3416;53.074;8.822;2022-10-16T15:33:24;4.53;;;2.03;;
6757;SDS011;3416;53.074;8.822;2022-10-16T15:35:53;4.37;;;1.83;;